• Join FlightAware (Why Join?)
  • Login
  • US Flag 
08:58AM EDT


 

Airport Tracker/Info


-or-


 

Live Flight TrackerFlight Track Log ✈ N3879Q ✈ 25-Apr-2013 ✈ KGNV - KTMB

Flight Track Log - Related Links

Times and Time Zones

All times are in EDT time to prevent confusion due to time zone crossing. See the N3879Q flight status page for this flight to view local times or setup timezone preferences in your user account.

Time Position Orientation Groundspeed Altitude Reporting Facility
EDT Latitude Longitude Course Direction KTS MPH feet Rate Location/Type
12:36AM 29.7094 -82.2397 149° Southeast 73 84 1,500  Level Jacksonville Center
12:36AM 29.6989 -82.2325 149° Southeast 73 84 1,800 600 Climbing Jacksonville Center
12:37AM 29.6803 -82.2353 187° South 72 83 2,500 540 Climbing Jacksonville Center
12:38AM 29.6594 -82.2328 174° South 75 86 3,000 540 Climbing Jacksonville Center
12:39AM 29.6383 -82.2283 170° South 77 89 3,600 540 Climbing Jacksonville Center
12:40AM 29.6175 -82.2142 149° Southeast 77 89 4,200 540 Climbing Jacksonville Center
12:41AM 29.6008 -82.2000 144° Southeast 80 92 4,700 420 Climbing Jacksonville Center
12:42AM 29.5839 -82.1833 139° Southeast 90 104 5,100 180 Climbing Jacksonville Center
12:43AM 29.5569 -82.1858 185° South 102 117 5,100 -60 Level Jacksonville Center
12:44AM 29.5278 -82.1956 196° South 97 112 5,000 -60 Descending Jacksonville Center
12:45AM 29.5006 -82.1958 181° South 96 110 5,000  Level Jacksonville Center
12:46AM 29.4756 -82.1983 185° South 92 106 5,000  Level Jacksonville Center
12:47AM 29.4483 -82.1986 181° South 93 107 5,100  Climbing Jacksonville Center
12:48AM 29.4211 -82.2011 185° South 93 107 5,100 -60 Level Jacksonville Center
12:49AM 29.3961 -82.2061 190° South 93 107 5,000 -60 Descending Jacksonville Center
12:50AM 29.3711 -82.2086 185° South 91 105 5,000  Level Jacksonville Center
12:51AM 29.3461 -82.2089 181° South 88 101 5,000  Level Jacksonville Center
12:52AM 29.3211 -82.2139 190° South 89 102 5,000  Level Jacksonville Center
12:53AM 29.2961 -82.2139 180° South 90 104 5,100  Climbing Jacksonville Center
12:54AM 29.2689 -82.2164 185° South 91 105 5,100 -60 Level Jacksonville Center
12:55AM 29.2458 -82.2192 186° South 95 109 5,000 -120 Descending Jacksonville Center
12:56AM 29.2189 -82.2217 185° South 95 109 4,900  Descending Jacksonville Center
12:57AM 29.1958 -82.2264 190° South 88 101 5,000  Climbing Jacksonville Center
12:58AM 29.1708 -82.2292 186° South 86 99 5,000  Level Jacksonville Center
12:59AM 29.1458 -82.2197 162° South 94 108 5,000  Level Jacksonville Center
01:00AM 29.1206 -82.2103 162° South 95 109 5,100  Climbing Jacksonville Center
01:01AM 29.0936 -82.2058 172° South 95 109 5,100  Level Jacksonville Center
01:02AM 29.0664 -82.1942 159° South 98 113 5,100  Level Jacksonville Center
01:03AM 29.0411 -82.1894 171° South 97 112 5,100  Level Jacksonville Center
01:04AM 29.0142 -82.1922 185° South 96 110 5,100 -60 Level Jacksonville Center
01:06AM 28.9869 -82.1900 176° South 95 109 5,000 -60 Descending Jacksonville Center
01:07AM 28.9619 -82.1853 171° South 95 109 5,000  Level Jacksonville Center
01:08AM 28.9347 -82.1831 176° South 94 108 5,000  Level Jacksonville Center
01:09AM 28.9097 -82.1786 171° South 93 107 5,000  Level Jacksonville Center
01:11AM 28.8500 -82.1667 170° South 91 105 5,000  Level Tampa TRACON
01:12AM 28.8333 -82.1667 180° South 91 105 5,000  Level Tampa TRACON
01:13AM 28.8000 -82.1667 180° South 91 105 5,100  Climbing Tampa TRACON
01:14AM 28.7833 -82.1500 139° Southeast 91 105 5,100  Level Tampa TRACON
01:15AM 28.7500 -82.1500 180° South 93 107 5,100  Level Tampa TRACON
01:16AM 28.7333 -82.1500 180° South 95 109 5,200  Climbing Tampa TRACON
01:17AM 28.7000 -82.1500 180° South 98 113 5,100 -60 Descending Tampa TRACON
01:18AM 28.6833 -82.1333 139° Southeast 99 114 5,100 -60 Level Tampa TRACON
01:19AM 28.6500 -82.1333 180° South 96 110 5,000 -60 Descending Tampa TRACON
01:20AM 28.6167 -82.1333 180° South 96 110 5,000  Level Tampa TRACON
01:21AM 28.6000 -82.1167 139° Southeast 96 110 5,000  Level Tampa TRACON
01:22AM 28.5667 -82.1167 180° South 98 113 5,000  Level Tampa TRACON
01:22AM 28.5500 -82.1167 180° South 97 112 5,000  Level Tampa TRACON
01:23AM 28.5167 -82.1167 180° South 98 113 5,000  Level Tampa TRACON
01:24AM 28.4833 -82.1000 156° South 98 113 5,000  Level Tampa TRACON
01:25AM 28.4667 -82.1000 180° South 99 114 5,000  Level Tampa TRACON
01:26AM 28.4333 -82.1000 180° South 98 113 5,000  Level Tampa TRACON
01:27AM 28.4167 -82.0833 139° Southeast 97 112 5,000  Level Tampa TRACON
01:28AM 28.3833 -82.0833 180° South 97 112 5,100  Climbing Tampa TRACON
01:29AM 28.3500 -82.0833 180° South 97 112 5,100  Level Tampa TRACON
01:30AM 28.3333 -82.0833 180° South 98 113 5,100  Level Tampa TRACON
01:31AM 28.3000 -82.0667 156° South 98 113 5,100  Level Tampa TRACON
01:33AM 28.2667 -82.0667 180° South 99 114 5,100  Level Tampa TRACON
01:34AM 28.2500 -82.0667 180° South 101 116 5,100  Level Tampa TRACON
01:35AM 28.2167 -82.0667 180° South 97 112 5,100 -60 Level Tampa TRACON
01:36AM 28.1833 -82.0500 156° South 97 112 5,000 -60 Descending Tampa TRACON
01:37AM 28.1667 -82.0500 180° South 95 109 5,000  Level Tampa TRACON
01:38AM 28.1333 -82.0500 180° South 94 108 5,000  Level Tampa TRACON
01:39AM 28.1167 -82.0333 139° Southeast 97 112 5,000  Level Tampa TRACON
01:41AM 28.0572 -82.0300 177° South 64 74 5,100  Climbing Miami Center
01:42AM 28.0283 -82.0239 169° South 95 109 5,100 -60 Level Miami Center
01:43AM 28.0036 -82.0183 169° South 100 115 5,000 -60 Descending Miami Center
01:44AM 27.9764 -82.0147 173° South 100 115 5,000  Level Miami Center
01:45AM 27.9561 -81.9997 147° Southeast 100 115 5,000  Level Miami Center
01:46AM 27.9317 -81.9844 151° Southeast 100 115 5,000  Level Miami Center
01:47AM 27.9072 -81.9717 155° Southeast 100 115 5,000  Level Miami Center
01:48AM 27.8847 -81.9589 153° Southeast 100 115 5,000  Level Miami Center
01:49AM 27.8622 -81.9461 153° Southeast 100 115 5,100  Climbing Miami Center
01:50AM 27.8375 -81.9333 155° Southeast 95 109 5,100  Level Miami Center
01:51AM 27.8131 -81.9203 155° Southeast 95 109 5,100  Level Miami Center
01:52AM 27.7883 -81.9053 152° Southeast 95 109 5,100  Level Miami Center
01:53AM 27.7658 -81.8925 153° Southeast 95 109 5,100  Level Miami Center
01:54AM 27.7453 -81.8822 156° South 90 104 5,100  Level Miami Center
01:55AM 27.7189 -81.8669 153° Southeast 90 104 5,100  Level Miami Center
01:56AM 27.6964 -81.8542 153° Southeast 90 104 5,100 -60 Level Miami Center
01:57AM 27.6717 -81.8392 152° Southeast 90 104 5,000 -60 Descending Miami Center
01:58AM 27.6533 -81.8267 149° Southeast 97 112 5,000  Level Miami Center
01:59AM 27.6311 -81.8117 149° Southeast 97 112 5,000  Level Miami Center
02:00AM 27.6067 -81.7917 144° Southeast 97 112 5,000  Level Miami Center
02:01AM 27.5842 -81.7767 149° Southeast 97 112 5,000  Level Miami Center
02:02AM 27.5617 -81.7617 149° Southeast 97 112 5,000  Level Miami Center
02:03AM 27.5392 -81.7467 149° Southeast 97 112 5,000  Level Miami Center
02:04AM 27.5167 -81.7342 154° Southeast 97 112 5,100  Climbing Miami Center
02:05AM 27.4944 -81.7167 145° Southeast 97 112 5,100  Level Miami Center
02:06AM 27.4719 -81.7017 149° Southeast 97 112 5,100  Level Miami Center
02:07AM 27.4517 -81.6844 143° Southeast 97 112 5,100 -60 Level Miami Center
02:08AM 27.4272 -81.6672 148° Southeast 97 112 5,000 -60 Descending Miami Center
02:09AM 27.4047 -81.6522 149° Southeast 97 112 5,000  Level Miami Center
02:10AM 27.3822 -81.6372 149° Southeast 97 112 5,000  Level Miami Center
02:11AM 27.3600 -81.6200 145° Southeast 97 112 5,000  Level Miami Center
02:12AM 27.3375 -81.6050 149° Southeast 97 112 5,000  Level Miami Center
02:13AM 27.3150 -81.5900 149° Southeast 97 112 5,000  Level Miami Center
02:14AM 27.2925 -81.5750 149° Southeast 97 112 5,000  Level Miami Center
02:15AM 27.2678 -81.5625 156° South 97 112 5,000  Level Miami Center
02:16AM 27.2456 -81.5428 142° Southeast 97 112 5,100  Climbing Miami Center
02:18AM 27.2028 -81.5108 146° Southeast 97 112 5,100  Level Miami Center
02:19AM 27.1781 -81.4958 152° Southeast 97 112 5,100  Level Miami Center
02:20AM 27.1558 -81.4786 145° Southeast 97 112 5,100  Level Miami Center
02:21AM 27.1333 -81.4614 146° Southeast 97 112 5,100 -60 Level Miami Center
02:22AM 27.1108 -81.4464 149° Southeast 97 112 5,000  Descending Miami Center
02:23AM 27.0883 -81.4292 146° Southeast 97 112 5,100  Climbing Miami Center
02:24AM 27.0639 -81.4142 151° Southeast 97 112 5,100  Level Miami Center
02:25AM 27.0414 -81.3994 150° Southeast 97 112 5,100  Level Miami Center
02:26AM 27.0272 -81.3803 130° Southeast 97 112 5,100  Level Miami Center
02:27AM 27.0050 -81.3606 142° Southeast 91 105 5,100  Level Miami Center
02:28AM 26.9803 -81.3481 156° South 98 113 5,100 -60 Level Miami Center
02:29AM 26.9556 -81.3356 156° South 98 113 5,000  Descending Miami Center
02:30AM 26.9331 -81.3183 146° Southeast 98 113 5,100  Climbing Miami Center
02:31AM 26.9128 -81.3036 147° Southeast 98 113 5,100 -60 Level Miami Center
02:32AM 26.8861 -81.2839 147° Southeast 98 113 5,000  Descending Miami Center
02:33AM 26.8617 -81.2667 148° Southeast 98 113 5,100  Climbing Miami Center
02:34AM 26.8369 -81.2542 156° South 98 113 5,000 -60 Descending Miami Center
02:35AM 26.8167 -81.2369 143° Southeast 98 113 5,000  Level Miami Center
02:36AM 26.7900 -81.2197 150° Southeast 98 113 5,000  Level Miami Center
02:37AM 26.7633 -81.2025 150° Southeast 98 113 5,100  Climbing Miami Center
02:38AM 26.7389 -81.1853 148° Southeast 98 113 5,100 -60 Level Miami Center
02:39AM 26.7164 -81.1706 150° Southeast 103 119 5,000 -60 Descending Miami Center
02:40AM 26.6917 -81.1533 148° Southeast 103 119 5,000  Level Miami Center
02:41AM 26.6653 -81.1361 150° Southeast 96 110 5,000  Level Miami Center
02:42AM 26.6428 -81.1192 146° Southeast 96 110 5,000  Level Miami Center
02:43AM 26.6181 -81.1042 152° Southeast 96 110 5,100  Climbing Miami Center
02:44AM 26.5956 -81.0872 146° Southeast 96 110 5,100  Level Miami Center
02:45AM 26.5711 -81.0678 145° Southeast 96 110 5,200  Climbing Miami Center
02:46AM 26.5467 -81.0483 145° Southeast 101 116 5,100 -120 Descending Miami Center
02:47AM 26.5178 -81.0308 152° Southeast 101 116 5,000 -60 Descending Miami Center
02:48AM 26.4956 -81.0117 142° Southeast 101 116 5,000  Level Miami Center
02:49AM 26.4644 -80.9967 157° South 101 116 5,000  Level Miami Center
02:50AM 26.4400 -80.9794 148° Southeast 109 125 5,000  Level Miami Center
02:51AM 26.4217 -80.9628 141° Southeast 109 125 5,000  Level Miami Center
02:52AM 26.3928 -80.9453 152° Southeast 109 125 5,000  Level Miami Center
02:53AM 26.3703 -80.9308 150° Southeast 104 120 5,000  Level Miami Center
02:54AM 26.3436 -80.9114 147° Southeast 104 120 5,100 60 Climbing Miami Center
02:54AM 26.3272 -80.9039 158° South 103 119 5,100  Level Miami Center
02:55AM 26.3211 -80.8989 144° Southeast 102 117 5,100  Level Miami Center
02:56AM 26.2967 -80.8794 145° Southeast 102 117 5,100  Level Miami Center
02:57AM 26.2739 -80.8650 150° Southeast 104 120 5,100  Level Miami Center
02:58AM 26.2475 -80.8431 143° Southeast 98 113 5,100  Level Miami Center
02:59AM 26.2269 -80.8333 157° South 98 113 5,100  Level Miami Center
03:00AM 26.2022 -80.8139 145° Southeast 98 113 5,200  Climbing Miami Center
03:01AM 26.1714 -80.7989 156° South 104 120 5,200 -60 Level Miami Center
03:02AM 26.1531 -80.7822 141° Southeast 98 113 5,100  Descending Miami Center
03:03AM 26.1283 -80.7650 148° Southeast 98 113 5,200  Climbing Miami Center
03:04AM 26.1039 -80.7458 145° Southeast 98 113 5,200 -60 Level Miami Center
03:05AM 26.0750 -80.7286 152° Southeast 105 121 5,100  Descending Miami Center
03:06AM 26.0483 -80.7117 150° Southeast 105 121 5,200  Climbing Miami Center
03:07AM 26.0194 -80.7014 162° South 106 122 5,200  Level Miami Center
03:08AM 25.9906 -80.6914 163° South 107 123 5,200  Level Miami Center
03:09AM 25.9633 -80.6858 170° South 105 121 5,200 -180 Level Miami Center
03:10AM 25.9303 -80.6733 161° South 108 124 4,900 -540 Descending Miami Center
03:11AM 25.9014 -80.6631 162° South 108 124 4,200 -660 Descending Miami Center
03:12AM 25.8744 -80.6575 169° South 107 123 3,600 -600 Descending Miami Center
03:13AM 25.8453 -80.6497 167° South 105 121 3,100 -540 Descending Miami Center
03:14AM 25.8206 -80.6397 160° South 95 109 2,600 -600 Descending Miami Center
03:15AM 25.7956 -80.6344 169° South 87 100 2,000 -300 Descending Miami Center
03:16AM 25.7750 -80.6244 156° South 81 93 2,100 60 Climbing Miami Center
03:17AM 25.7519 -80.6214 173° South 89 102 2,200  Climbing Miami Center
03:18AM 25.7272 -80.6183 174° South 87 100 2,200 -60 Level Miami Center
03:19AM 25.7019 -80.6175 178° South 91 105 2,100 -120 Descending Miami Center
03:20AM 25.6769 -80.6144 174° South 87 100 2,000  Descending Miami Center
03:21AM 25.6542 -80.6092 168° South 86 99 2,100  Climbing Miami Center
03:22AM 25.6400 -80.5972 143° Southeast 72 83 2,100  Level Miami Center
03:23AM 25.6383 -80.5742 95° East 70 81 2,100 -300 Level Miami Center
03:24AM 25.6347 -80.5486 99° East 83 96 1,600 -300 Descending Miami Center
03:25AM 25.6353 -80.5281 88° East 91 105 1,500 -120 Descending Miami Center